RUK6L EGAA-EGCC
Flight info
| Callsign | RUK6L |
|---|---|
| Flight time | N/A |
| Altitude | 25000 |
| Route | DCT LISBO L603 PEPOD Q38 MAKUX MAKUX1M |
| Aircraft | B738/M-SDE2E3FGHIRWXY/LB1 |
Departure
| Time | 2026-04-27 22:26 |
|---|---|
| Airport | Belfast International Airport (EGAA) |
Arrival
| Time | N/A |
|---|---|
| Airport | Manchester Airport (EGCC) |
| Time | Latitude | Longitude | Altitude | Speed | Heading |
|---|---|---|---|---|---|
| 2026-04-27 22:07 | 54.66058 | -6.21787 | 271 ft | 0 kts | 285° |
| 2026-04-27 22:13 | 54.66054 | -6.21764 | 275 ft | 3 kts | 290° |
| 2026-04-27 22:13 | 54.66045 | -6.21728 | 275 ft | 3 kts | 300° |
| 2026-04-27 22:14 | 54.66033 | -6.21695 | 275 ft | 3 kts | 309° |
| 2026-04-27 22:14 | 54.66017 | -6.21666 | 273 ft | 3 kts | 318° |
| 2026-04-27 22:14 | 54.66000 | -6.21641 | 275 ft | 3 kts | 324° |
| 2026-04-27 22:14 | 54.65981 | -6.21618 | 271 ft | 3 kts | 319° |
| 2026-04-27 22:15 | 54.65968 | -6.21595 | 271 ft | 3 kts | 315° |
| 2026-04-27 22:15 | 54.65953 | -6.21571 | 277 ft | 3 kts | 295° |
| 2026-04-27 22:15 | 54.65947 | -6.21541 | 271 ft | 3 kts | 264° |
| 2026-04-27 22:15 | 54.65950 | -6.21508 | 273 ft | 3 kts | 234° |
| 2026-04-27 22:16 | 54.65957 | -6.21491 | 275 ft | 0 kts | 245° |
| 2026-04-27 22:20 | 54.65956 | -6.21495 | 271 ft | 1 kts | 245° |
| 2026-04-27 22:21 | 54.65951 | -6.21511 | 273 ft | 2 kts | 245° |
| 2026-04-27 22:21 | 54.65941 | -6.21547 | 271 ft | 5 kts | 245° |
| 2026-04-27 22:21 | 54.65922 | -6.21617 | 271 ft | 8 kts | 245° |
| 2026-04-27 22:21 | 54.65894 | -6.21721 | 271 ft | 11 kts | 245° |
| 2026-04-27 22:22 | 54.65857 | -6.21859 | 271 ft | 14 kts | 245° |
| 2026-04-27 22:22 | 54.65813 | -6.22023 | 271 ft | 16 kts | 245° |
| 2026-04-27 22:22 | 54.65772 | -6.22216 | 271 ft | 17 kts | 262° |
| 2026-04-27 22:22 | 54.65758 | -6.22419 | 271 ft | 17 kts | 263° |
| 2026-04-27 22:23 | 54.65745 | -6.22616 | 271 ft | 16 kts | 264° |
| 2026-04-27 22:23 | 54.65733 | -6.22803 | 271 ft | 16 kts | 259° |
| 2026-04-27 22:23 | 54.65678 | -6.22974 | 274 ft | 18 kts | 232° |
| 2026-04-27 22:23 | 54.65603 | -6.23154 | 275 ft | 18 kts | 236° |
| 2026-04-27 22:24 | 54.65527 | -6.23323 | 271 ft | 18 kts | 224° |
| 2026-04-27 22:24 | 54.65405 | -6.23406 | 271 ft | 20 kts | 190° |
| 2026-04-27 22:24 | 54.65292 | -6.23342 | 271 ft | 10 kts | 149° |
| 2026-04-27 22:24 | 54.65292 | -6.23277 | 276 ft | 0 kts | 65° |
| 2026-04-27 22:25 | 54.65296 | -6.23262 | 273 ft | 13 kts | 65° |
| 2026-04-27 22:25 | 54.65472 | -6.22611 | 273 ft | 106 kts | 65° |
| 2026-04-27 22:25 | 54.65908 | -6.21010 | 376 ft | 176 kts | 64° |
| 2026-04-27 22:26 | 54.66454 | -6.18980 | 1279 ft | 193 kts | 63° |
| 2026-04-27 22:26 | 54.66980 | -6.16914 | 2427 ft | 179 kts | 65° |
| 2026-04-27 22:26 | 54.67456 | -6.15019 | 3353 ft | 172 kts | 66° |
| 2026-04-27 22:26 | 54.67956 | -6.13108 | 4003 ft | 178 kts | 65° |
| 2026-04-27 22:27 | 54.68481 | -6.11125 | 4689 ft | 183 kts | 66° |
| 2026-04-27 22:27 | 54.69032 | -6.09073 | 5182 ft | 195 kts | 65° |
| 2026-04-27 22:27 | 54.69614 | -6.06922 | 5655 ft | 201 kts | 65° |
| 2026-04-27 22:27 | 54.70215 | -6.04694 | 6132 ft | 207 kts | 65° |
| 2026-04-27 22:28 | 54.70797 | -6.02385 | 6580 ft | 214 kts | 74° |
| 2026-04-27 22:28 | 54.70681 | -5.99807 | 6994 ft | 224 kts | 115° |
| 2026-04-27 22:28 | 54.69587 | -5.97854 | 7447 ft | 238 kts | 146° |
| 2026-04-27 22:28 | 54.68094 | -5.96333 | 7685 ft | 264 kts | 148° |
| 2026-04-27 22:29 | 54.66432 | -5.94713 | 8080 ft | 282 kts | 148° |
| 2026-04-27 22:29 | 54.64725 | -5.93070 | 8679 ft | 292 kts | 148° |
| 2026-04-27 22:29 | 54.62886 | -5.91303 | 9398 ft | 299 kts | 148° |
| 2026-04-27 22:29 | 54.61057 | -5.89542 | 10086 ft | 306 kts | 147° |
| 2026-04-27 22:30 | 54.59259 | -5.87807 | 10690 ft | 314 kts | 147° |
| 2026-04-27 22:30 | 54.57278 | -5.85888 | 10884 ft | 337 kts | 147° |
| 2026-04-27 22:30 | 54.55178 | -5.83852 | 11082 ft | 359 kts | 147° |
| 2026-04-27 22:30 | 54.52926 | -5.81674 | 11389 ft | 375 kts | 147° |
| 2026-04-27 22:31 | 54.50634 | -5.79464 | 11975 ft | 382 kts | 147° |
| 2026-04-27 22:31 | 54.48324 | -5.77241 | 12680 ft | 385 kts | 147° |
| 2026-04-27 22:31 | 54.45954 | -5.74962 | 13402 ft | 390 kts | 147° |
| 2026-04-27 22:31 | 54.43568 | -5.72667 | 14088 ft | 395 kts | 147° |
| 2026-04-27 22:32 | 54.41173 | -5.70365 | 14730 ft | 400 kts | 147° |
| 2026-04-27 22:32 | 54.38726 | -5.68016 | 15354 ft | 405 kts | 147° |
| 2026-04-27 22:32 | 54.36235 | -5.65628 | 16018 ft | 411 kts | 147° |
| 2026-04-27 22:32 | 54.33746 | -5.63244 | 16629 ft | 417 kts | 147° |
| 2026-04-27 22:33 | 54.31192 | -5.60802 | 17229 ft | 422 kts | 147° |
| 2026-04-27 22:33 | 54.28670 | -5.58215 | 17833 ft | 425 kts | 140° |
| 2026-04-27 22:33 | 54.26422 | -5.54963 | 18444 ft | 423 kts | 129° |
| 2026-04-27 22:33 | 54.24523 | -5.51123 | 19005 ft | 421 kts | 119° |
| 2026-04-27 22:34 | 54.22829 | -5.46972 | 19590 ft | 423 kts | 118° |
| 2026-04-27 22:34 | 54.21155 | -5.42897 | 20153 ft | 427 kts | 119° |
| 2026-04-27 22:34 | 54.19399 | -5.38715 | 20703 ft | 431 kts | 120° |
| 2026-04-27 22:34 | 54.17646 | -5.34586 | 21238 ft | 435 kts | 120° |
| 2026-04-27 22:35 | 54.15863 | -5.30386 | 21790 ft | 438 kts | 120° |
| 2026-04-27 22:35 | 54.14080 | -5.26183 | 22365 ft | 441 kts | 119° |
| 2026-04-27 22:35 | 54.12266 | -5.21911 | 22892 ft | 444 kts | 119° |
| 2026-04-27 22:35 | 54.10448 | -5.17636 | 23374 ft | 448 kts | 119° |
| 2026-04-27 22:36 | 54.08609 | -5.13317 | 23877 ft | 452 kts | 120° |
| 2026-04-27 22:36 | 54.06744 | -5.08946 | 24306 ft | 455 kts | 120° |
| 2026-04-27 22:36 | 54.04888 | -5.04606 | 24743 ft | 457 kts | 120° |
| 2026-04-27 22:36 | 54.03002 | -5.00205 | 25205 ft | 459 kts | 120° |
| 2026-04-27 22:37 | 54.01120 | -4.95815 | 25381 ft | 465 kts | 120° |
| 2026-04-27 22:37 | 53.99213 | -4.91371 | 25384 ft | 472 kts | 120° |
| 2026-04-27 22:37 | 53.97242 | -4.86792 | 25391 ft | 475 kts | 120° |
| 2026-04-27 22:37 | 53.95297 | -4.82307 | 25379 ft | 473 kts | 120° |
| 2026-04-27 22:38 | 53.93346 | -4.77831 | 25373 ft | 470 kts | 120° |
| 2026-04-27 22:38 | 53.91400 | -4.73370 | 25381 ft | 468 kts | 120° |
| 2026-04-27 22:38 | 53.89477 | -4.68963 | 25419 ft | 471 kts | 119° |
| 2026-04-27 22:38 | 53.87507 | -4.64442 | 25380 ft | 478 kts | 119° |
| 2026-04-27 22:39 | 53.85530 | -4.59917 | 25390 ft | 480 kts | 119° |
| 2026-04-27 22:39 | 53.83555 | -4.55414 | 25366 ft | 478 kts | 119° |
| 2026-04-27 22:39 | 53.81554 | -4.50863 | 25369 ft | 477 kts | 119° |
| 2026-04-27 22:39 | 53.79583 | -4.46383 | 25377 ft | 476 kts | 119° |
| 2026-04-27 22:40 | 53.77595 | -4.41870 | 25378 ft | 473 kts | 119° |
| 2026-04-27 22:40 | 53.75674 | -4.37526 | 25359 ft | 462 kts | 119° |
| 2026-04-27 22:40 | 53.73768 | -4.33218 | 25359 ft | 451 kts | 119° |
| 2026-04-27 22:40 | 53.71917 | -4.29044 | 25354 ft | 434 kts | 118° |
| 2026-04-27 22:41 | 53.70130 | -4.25012 | 25350 ft | 419 kts | 118° |
| 2026-04-27 22:41 | 53.68429 | -4.21172 | 25353 ft | 405 kts | 118° |
| 2026-04-27 22:41 | 53.66784 | -4.17460 | 25358 ft | 391 kts | 118° |
| 2026-04-27 22:41 | 53.65161 | -4.13811 | 25383 ft | 379 kts | 116° |
| 2026-04-27 22:42 | 53.63612 | -4.10322 | 25356 ft | 365 kts | 114° |
| 2026-04-27 22:42 | 53.62468 | -4.06747 | 25366 ft | 335 kts | 99° |
| 2026-04-27 22:42 | 53.61610 | -4.03205 | 25348 ft | 321 kts | 98° |
| 2026-04-27 22:42 | 53.60794 | -3.99743 | 25346 ft | 311 kts | 97° |
| 2026-04-27 22:43 | 53.59996 | -3.96354 | 25366 ft | 312 kts | 97° |
| 2026-04-27 22:43 | 53.59186 | -3.92923 | 25375 ft | 324 kts | 98° |
| 2026-04-27 22:43 | 53.58332 | -3.89355 | 25017 ft | 337 kts | 99° |
| 2026-04-27 22:43 | 53.57416 | -3.85587 | 24222 ft | 356 kts | 100° |
| 2026-04-27 22:44 | 53.56443 | -3.81625 | 22962 ft | 382 kts | 102° |
| 2026-04-27 22:44 | 53.55382 | -3.77360 | 21636 ft | 405 kts | 103° |
| 2026-04-27 22:44 | 53.54276 | -3.72960 | 20709 ft | 416 kts | 104° |
| 2026-04-27 22:44 | 53.53137 | -3.68457 | 20201 ft | 413 kts | 104° |
| 2026-04-27 22:45 | 53.52022 | -3.64062 | 19829 ft | 407 kts | 104° |
| 2026-04-27 22:45 | 53.51290 | -3.61165 | 19601 ft | 403 kts | 104° |
| 2026-04-27 22:45 | 53.50205 | -3.56861 | 19152 ft | 399 kts | 104° |
| 2026-04-27 22:45 | 53.48768 | -3.51149 | 18485 ft | 395 kts | 104° |
| 2026-04-27 22:46 | 53.48055 | -3.48316 | 18151 ft | 393 kts | 104° |
| 2026-04-27 22:46 | 53.47003 | -3.44148 | 17635 ft | 387 kts | 105° |
| 2026-04-27 22:46 | 53.45955 | -3.40011 | 16953 ft | 381 kts | 105° |
| 2026-04-27 22:46 | 53.44923 | -3.35934 | 16205 ft | 378 kts | 106° |
| 2026-04-27 22:47 | 53.43904 | -3.31912 | 15513 ft | 375 kts | 107° |
| 2026-04-27 22:47 | 53.42888 | -3.27914 | 15009 ft | 366 kts | 107° |
| 2026-04-27 22:47 | 53.41906 | -3.24073 | 14795 ft | 350 kts | 108° |
| 2026-04-27 22:47 | 53.40975 | -3.20445 | 14643 ft | 334 kts | 107° |
| 2026-04-27 22:48 | 53.40097 | -3.16895 | 14344 ft | 321 kts | 101° |
| 2026-04-27 22:48 | 53.39869 | -3.13356 | 14026 ft | 298 kts | 78° |
| 2026-04-27 22:48 | 53.40368 | -3.10080 | 13608 ft | 283 kts | 61° |
| 2026-04-27 22:48 | 53.41277 | -3.07229 | 13088 ft | 279 kts | 56° |
| 2026-04-27 22:49 | 53.42249 | -3.04467 | 12542 ft | 278 kts | 56° |
| 2026-04-27 22:49 | 53.43245 | -3.01663 | 12122 ft | 273 kts | 56° |
| 2026-04-27 22:49 | 53.44189 | -2.98986 | 11815 ft | 265 kts | 56° |
| 2026-04-27 22:49 | 53.45123 | -2.96321 | 11405 ft | 261 kts | 56° |
| 2026-04-27 22:50 | 53.46035 | -2.93706 | 10923 ft | 261 kts | 57° |
| 2026-04-27 22:50 | 53.46954 | -2.91060 | 10481 ft | 259 kts | 57° |
| 2026-04-27 22:50 | 53.47848 | -2.88476 | 10034 ft | 258 kts | 57° |
| 2026-04-27 22:50 | 53.48753 | -2.85855 | 9572 ft | 256 kts | 58° |
| 2026-04-27 22:51 | 53.49289 | -2.83034 | 9054 ft | 262 kts | 87° |
| 2026-04-27 22:51 | 53.48848 | -2.80068 | 8631 ft | 268 kts | 112° |
| 2026-04-27 22:51 | 53.47758 | -2.77520 | 8189 ft | 272 kts | 134° |
| 2026-04-27 22:51 | 53.46222 | -2.75633 | 7754 ft | 274 kts | 143° |
| 2026-04-27 22:52 | 53.44621 | -2.73934 | 7324 ft | 272 kts | 144° |
| 2026-04-27 22:52 | 53.43026 | -2.72262 | 6941 ft | 274 kts | 144° |
| 2026-04-27 22:52 | 53.41407 | -2.70560 | 6581 ft | 276 kts | 144° |
| 2026-04-27 22:52 | 53.39772 | -2.68830 | 6260 ft | 276 kts | 144° |